»·PEaware :: N326LP KWHP-KBFL

N326LP :: KWHP-KBFL

FLIGHT INFORMATION

Flight Status: Arrived
Operator: Privately registered:
United States
More flights under this callsign
Pilot: Jon S. (43478)
Aircraft: CESSNA 172 SKYHAWK
(C172)
More flights by this aircraft type
Origin: KWHP Whiteman
United States
Destination: KBFL Meadows
United States
More flights between these airports :: More routes between these airports
Route:
File this flight plan on PilotEdge
Remarks:
Altitude:
(Current/Filed)
0ft
Speed:
(Current/Filed)
0kts
Departed: 15-Oct-23 07:46 AM
Arrived: 15-Oct-23 08:30 AM
Distance/Time
Traveled:
78nm/0:44
Distance/Time
To Go:
Arrived

Flight Plot

Page will automatically refresh every two minutes.


Map Options




Map Legend


Flown Route
Filed Route
Departure Airport
Arrival Airport
Navaid (VOR, NDB)
Fix

Horizontal Profiles

Position Reports

Time Latitude Longitude Heading Altitude Ground
Speed
15-Oct-23 07:38 34.260536 -118.411848 139 998ft 0kts
15-Oct-23 07:39 34.260199 -118.412011 223 995ft 7kts
15-Oct-23 07:40 34.260047 -118.413593 320 994ft 9kts
15-Oct-23 07:41 34.263170 -118.416775 340 1000ft 11kts
15-Oct-23 07:42 34.263566 -118.417001 292 1000ft 0kts
15-Oct-23 07:43 34.263566 -118.417001 292 1000ft 0kts
15-Oct-23 07:44 34.263657 -118.417662 241 999ft 8kts
15-Oct-23 07:45 34.252015 -118.405188 136 1484ft 78kts
15-Oct-23 07:46 34.260141 -118.395813 323 2397ft 77kts
15-Oct-23 07:47 34.279945 -118.416664 314 2589ft 98kts
15-Oct-23 07:48 34.298865 -118.438930 318 3147ft 87kts
15-Oct-23 07:49 34.318035 -118.456528 325 4022ft 84kts
15-Oct-23 07:50 34.336610 -118.471912 324 4909ft 79kts
15-Oct-23 07:51 34.352557 -118.489158 309 5762ft 77kts
15-Oct-23 07:52 34.367095 -118.507940 318 6550ft 77kts
15-Oct-23 07:53 34.383455 -118.523692 321 7306ft 75kts
15-Oct-23 07:54 34.402330 -118.538472 332 7959ft 83kts
15-Oct-23 07:55 34.428200 -118.553846 332 8226ft 112kts
15-Oct-23 07:56 34.455733 -118.572545 327 8467ft 117kts
15-Oct-23 07:57 34.483804 -118.593575 328 8569ft 119kts
15-Oct-23 07:58 34.511897 -118.615608 324 8545ft 119kts
15-Oct-23 07:59 34.540289 -118.637746 324 8501ft 119kts
15-Oct-23 08:00 34.567193 -118.663576 319 8352ft 125kts
15-Oct-23 08:01 34.593359 -118.692820 316 8287ft 126kts
15-Oct-23 08:02 34.621018 -118.719121 329 8301ft 129kts
15-Oct-23 08:03 34.652250 -118.740760 334 8321ft 130kts
15-Oct-23 08:04 34.684850 -118.758564 341 8363ft 129kts
15-Oct-23 08:05 34.718005 -118.774219 329 8500ft 128kts
15-Oct-23 08:06 34.746364 -118.801287 312 8592ft 134kts
15-Oct-23 08:07 34.768678 -118.835162 307 8732ft 126kts
15-Oct-23 08:08 34.799363 -118.858698 340 8622ft 136kts
15-Oct-23 08:09 34.835534 -118.868347 357 8595ft 133kts
15-Oct-23 08:10 34.872099 -118.876394 341 8558ft 134kts
15-Oct-23 08:11 34.907062 -118.893328 341 8552ft 132kts
15-Oct-23 08:12 34.942055 -118.909084 341 8396ft 133kts
15-Oct-23 08:13 34.977070 -118.922661 350 8176ft 131kts
15-Oct-23 08:14 35.012449 -118.931044 345 7955ft 127kts
15-Oct-23 08:15 35.046587 -118.943556 340 7528ft 127kts
15-Oct-23 08:16 35.080235 -118.956638 341 7148ft 124kts
15-Oct-23 08:17 35.114050 -118.965917 357 6479ft 123kts
15-Oct-23 08:18 35.148174 -118.964961 1 5733ft 121kts
15-Oct-23 08:19 35.181645 -118.965437 0 5019ft 120kts
15-Oct-23 08:20 35.214861 -118.964671 2 4320ft 118kts
15-Oct-23 08:21 35.247639 -118.964020 0 3645ft 117kts
15-Oct-23 08:22 35.279896 -118.965701 357 2997ft 116kts
15-Oct-23 08:23 35.311891 -118.968240 355 2377ft 116kts
15-Oct-23 08:24 35.342508 -118.972357 352 2431ft 113kts
15-Oct-23 08:25 35.372039 -118.983147 328 2537ft 110kts
15-Oct-23 08:26 35.394215 -119.008430 315 2197ft 97kts
15-Oct-23 08:27 35.412428 -119.030453 316 1518ft 91kts
15-Oct-23 08:28 35.429558 -119.050860 311 725ft 78kts
15-Oct-23 08:29 35.440689 -119.062888 47 497ft 11kts

Navigation Log

Ident Type
Flight plan parsing failed, navigation log unavailable